Decoded Metar for KALS (ALAMOSA in CO, USA) (IATA:ALS) | Meteo·Mobile Aviation Weather
aviador You're here:

KALS Decoded Metar

ALAMOSA in CO, USA
Report Time2019-02-16 00:52:00
UTC Time2019-02-16 01:54:06
Flight Rules vfr VFR
Wind200° at 14 Gusting to 21 kt
W.Decomp.*RWY 20: 13.8 kt HW 2.2 kt LCW
W.Rank200° ranks 5
Current wind is above 200° avg. (8.7)
Visibility9999 m
Phenomena:N/A
Clouds:N/A
Expected CloudBase > 3,200 ft AGL from Temp-Dew spread
CeilingNone
Temp02°C (ISA +2)
Dew Point-6°C (56% RH)
AAT-5.7°C
QNH1013 hPa
Density Alt7,844 ft
Elevation7,543 ft
Report Wrong Elevation
Raw Report
KALS 160052Z AUTO 20014G21KT 10SM CLR 02/M06 A2990 RMK AO2 SLP117
T00171056=

Extra information for KALS:More info

Metar Taf Metar & Taf Last 4 Metars F.Rules Stats Wind Profile Meteogram Temp Stats Airport Information Weather charts Add Link Nearby VenuesMetar ALERT Operation Metar Decoded Social comments

AIRNAV info for KALS